Time;durP1;ratioP1;P1;durP2;ratioP2;P2;SDS_P1;SDS_P2;PMS_P1;PMS_P2;Temp;Humidity;BMP_temperature;BMP_pressure;BME280_temperature;BME280_humidity;BME280_pressure;Samples;Min_cycle;Max_cycle;Signal;HPM_P1;HPM_P2
2022/01/21 00:00:14;;;;;;;18.42;3.83;;;-0.40;99.90;;;;;;5077561;28;20481;-61
2022/01/21 00:02:40;;;;;;;16.75;3.05;;;-0.40;99.90;;;;;;5072314;28;20097;-61
2022/01/21 00:05:07;;;;;;;17.85;3.20;;;-0.40;99.90;;;;;;5075766;28;20107;-60
2022/01/21 00:07:32;;;;;;;22.60;4.43;;;-0.40;99.90;;;;;;5064878;28;20442;-59
2022/01/21 00:09:58;;;;;;;19.83;2.80;;;-0.40;99.90;;;;;;5072197;28;20181;-61
2022/01/21 00:12:26;;;;;;;15.95;4.47;;;-0.40;99.90;;;;;;5070777;28;20060;-62
2022/01/21 00:14:51;;;;;;;23.80;3.03;;;-0.50;99.90;;;;;;5071620;28;20039;-61
2022/01/21 00:17:19;;;;;;;15.02;2.95;;;-0.50;99.90;;;;;;5040065;28;20037;-60
2022/01/21 00:19:47;;;;;;;26.77;2.58;;;-0.50;99.90;;;;;;5027896;28;20374;-61
2022/01/21 00:30:33;;;;;;;21.88;4.32;;;-0.50;99.90;;;;;;5020570;28;20038;-61
2022/01/21 00:32:59;;;;;;;14.40;2.70;;;-0.60;99.90;;;;;;5028824;28;20043;-59
2022/01/21 00:35:24;;;;;;;15.73;2.65;;;-0.50;99.90;;;;;;5025197;28;20077;-58
2022/01/21 00:37:50;;;;;;;11.95;3.10;;;-0.50;99.90;;;;;;5019442;28;20113;-61
2022/01/21 00:40:21;;;;;;;16.23;3.28;;;-0.50;99.90;;;;;;5026841;28;20452;-61
2022/01/21 00:43:09;;;;;;;16.85;2.67;;;-0.50;99.90;;;;;;5027497;28;20432;-56
2022/01/21 00:45:33;;;;;;;14.57;2.58;;;-0.50;99.90;;;;;;5026853;28;20076;-60
2022/01/21 00:47:58;;;;;;;17.33;2.78;;;-0.50;99.90;;;;;;5026482;28;20504;-61
2022/01/21 00:50:24;;;;;;;15.48;3.10;;;-0.50;99.90;;;;;;5027374;28;20041;-61
2022/01/21 00:52:50;;;;;;;11.45;2.22;;;-0.40;99.90;;;;;;5027260;28;20084;-61
2022/01/21 00:55:15;;;;;;;19.33;2.53;;;-0.40;99.90;;;;;;5026566;28;20124;-59
2022/01/21 00:57:41;;;;;;;26.20;2.78;;;-0.50;99.90;;;;;;5024309;28;20077;-61
2022/01/21 01:00:10;;;;;;;16.52;2.30;;;-0.50;99.90;;;;;;5026498;28;20095;-61
2022/01/21 01:02:36;;;;;;;13.65;2.50;;;-0.50;99.90;;;;;;5025240;28;20095;-57
2022/01/21 01:05:03;;;;;;;12.57;2.30;;;-0.40;99.90;;;;;;5026898;28;20706;-61
2022/01/21 01:07:29;;;;;;;14.23;2.47;;;-0.40;99.90;;;;;;5018820;28;20486;-60
2022/01/21 01:09:57;;;;;;;26.10;5.10;;;-0.40;99.90;;;;;;5026092;28;20099;-61
2022/01/21 01:20:20;;;;;;;22.60;2.97;;;-0.50;99.90;;;;;;5026178;28;20034;-61
2022/01/21 01:27:59;;;;;;;18.60;2.75;;;-0.50;99.90;;;;;;5025711;28;20029;-61
2022/01/21 01:30:27;;;;;;;23.88;4.70;;;-0.40;99.90;;;;;;5020573;28;20035;-61
2022/01/21 01:32:57;;;;;;;15.93;3.05;;;-0.50;99.90;;;;;;5026104;28;20599;-61
2022/01/21 01:35:24;;;;;;;17.38;4.22;;;-0.50;99.90;;;;;;5026507;28;20041;-61
2022/01/21 01:40:42;;;;;;;20.35;2.55;;;-0.50;99.90;;;;;;5023689;28;20179;-61
2022/01/21 01:50:48;;;;;;;10.25;2.22;;;-0.50;99.90;;;;;;5025199;28;20049;-62
2022/01/21 01:53:15;;;;;;;13.02;2.22;;;-0.50;99.90;;;;;;5025874;28;20048;-61
2022/01/21 01:55:41;;;;;;;23.23;2.95;;;-0.40;99.90;;;;;;5025845;28;20045;-60
2022/01/21 01:58:07;;;;;;;14.35;2.30;;;-0.50;99.90;;;;;;5023697;28;20080;-62
2022/01/21 02:00:33;;;;;;;12.35;2.60;;;-0.40;99.90;;;;;;5024708;28;20064;-61
2022/01/21 02:03:10;;;;;;;9.25;2.42;;;-0.40;99.90;;;;;;5022929;28;20034;-60
2022/01/21 02:05:36;;;;;;;15.38;2.75;;;-0.40;99.90;;;;;;5022806;28;20493;-60
2022/01/21 02:08:02;;;;;;;20.35;2.83;;;-0.50;99.90;;;;;;5024318;28;20068;-60
2022/01/21 02:10:27;;;;;;;20.85;2.70;;;-0.50;99.90;;;;;;5026050;28;20044;-61
2022/01/21 02:13:04;;;;;;;13.75;2.35;;;-0.50;99.90;;;;;;5025393;28;20033;-61
2022/01/21 02:15:33;;;;;;;14.43;2.88;;;-0.50;99.90;;;;;;5019522;28;20048;-62
2022/01/21 02:21:34;;;;;;;29.10;3.53;;;-0.40;99.90;;;;;;5026339;28;20382;-61
2022/01/21 02:24:03;;;;;;;8.77;2.35;;;-0.40;99.90;;;;;;5024065;28;20107;-61
2022/01/21 02:26:29;;;;;;;20.10;3.50;;;-0.40;99.90;;;;;;5025843;28;20042;-60
2022/01/21 02:28:58;;;;;;;13.00;2.78;;;-0.40;99.90;;;;;;5024886;28;20147;-62
2022/01/21 02:31:24;;;;;;;23.45;3.28;;;-0.40;99.90;;;;;;5025866;28;20033;-61
2022/01/21 02:33:50;;;;;;;15.95;2.45;;;-0.50;99.90;;;;;;5024346;28;20034;-62
2022/01/21 02:36:15;;;;;;;17.10;3.33;;;-0.40;99.90;;;;;;5024126;28;20519;-61
2022/01/21 02:38:41;;;;;;;25.20;3.15;;;-0.40;99.90;;;;;;5024664;28;20091;-61
2022/01/21 02:41:07;;;;;;;17.67;2.92;;;-0.50;99.90;;;;;;5024807;28;20124;-62
2022/01/21 02:43:32;;;;;;;18.88;3.88;;;-0.40;99.90;;;;;;5025993;28;20140;-61
2022/01/21 02:46:04;;;;;;;12.98;2.90;;;-0.40;99.90;;;;;;5024787;28;20043;-62
2022/01/21 02:48:29;;;;;;;14.07;2.45;;;-0.40;99.90;;;;;;5021445;28;20049;-62
2022/01/21 02:50:55;;;;;;;22.23;2.75;;;-0.40;99.90;;;;;;5026217;28;20083;-58
2022/01/21 02:53:28;;;;;;;12.35;2.47;;;-0.30;99.90;;;;;;5025250;28;20038;-61
2022/01/21 02:55:54;;;;;;;23.17;4.78;;;-0.30;99.90;;;;;;5025587;28;20041;-61
2022/01/21 02:58:20;;;;;;;18.13;5.07;;;-0.40;99.90;;;;;;5023699;28;20551;-61
2022/01/21 03:00:45;;;;;;;12.38;2.58;;;-0.30;99.90;;;;;;5024579;28;20037;-58
2022/01/21 03:03:11;;;;;;;11.35;2.40;;;-0.40;99.90;;;;;;5024961;28;20034;-60
2022/01/21 03:05:38;;;;;;;24.73;3.15;;;-0.40;99.90;;;;;;5025498;28;20033;-58
2022/01/21 03:08:06;;;;;;;9.88;2.38;;;-0.40;99.90;;;;;;5024687;28;20041;-61
2022/01/21 03:10:32;;;;;;;17.70;2.38;;;-0.40;99.90;;;;;;5025745;28;20072;-60
2022/01/21 03:12:57;;;;;;;8.88;2.00;;;-0.30;99.90;;;;;;5025744;28;20072;-59
2022/01/21 03:15:23;;;;;;;24.55;3.65;;;-0.40;99.90;;;;;;5024987;28;20544;-59
2022/01/21 03:17:49;;;;;;;13.68;2.45;;;-0.30;99.90;;;;;;5023543;28;20033;-59
2022/01/21 03:20:15;;;;;;;13.60;2.75;;;-0.30;99.90;;;;;;5025117;28;20033;-61
2022/01/21 03:22:41;;;;;;;9.82;2.33;;;-0.30;99.90;;;;;;5025465;28;20034;-61
2022/01/21 03:25:07;;;;;;;9.05;2.00;;;-0.30;99.90;;;;;;5024963;28;20064;-62
2022/01/21 03:27:34;;;;;;;16.13;3.13;;;-0.30;99.90;;;;;;5020902;28;20065;-61
2022/01/21 03:30:02;;;;;;;11.82;2.58;;;-0.30;99.90;;;;;;5020815;28;20079;-61
2022/01/21 03:32:28;;;;;;;12.15;2.65;;;-0.30;99.90;;;;;;5024716;28;20038;-62
2022/01/21 03:34:54;;;;;;;20.92;3.63;;;-0.30;99.90;;;;;;5025653;28;20045;-61
2022/01/21 03:37:20;;;;;;;22.40;3.58;;;-0.40;99.90;;;;;;5024543;28;20037;-60
2022/01/21 03:39:46;;;;;;;10.45;2.13;;;-0.40;99.90;;;;;;5024093;28;20038;-60
2022/01/21 03:42:11;;;;;;;17.45;3.15;;;-0.40;99.90;;;;;;5024421;28;20045;-60
2022/01/21 03:44:37;;;;;;;17.20;3.53;;;-0.40;99.90;;;;;;5024744;28;20041;-60
2022/01/21 03:47:04;;;;;;;17.88;2.65;;;-0.40;99.90;;;;;;5023920;28;20041;-57
2022/01/21 03:49:36;;;;;;;21.13;2.92;;;-0.30;99.90;;;;;;5022706;28;20478;-55
2022/01/21 03:52:04;;;;;;;16.83;3.03;;;-0.30;99.90;;;;;;5026504;28;20037;-60
2022/01/21 03:54:29;;;;;;;11.68;2.20;;;-0.30;99.90;;;;;;5028677;28;20132;-59
2022/01/21 03:56:55;;;;;;;14.18;3.40;;;-0.40;99.90;;;;;;5028561;28;20565;-59
2022/01/21 03:59:20;;;;;;;14.60;2.42;;;-0.40;99.90;;;;;;5027418;28;20040;-59
2022/01/21 04:01:46;;;;;;;15.63;3.10;;;-0.40;99.90;;;;;;5028331;28;20037;-60
2022/01/21 04:04:12;;;;;;;16.05;2.92;;;-0.40;99.90;;;;;;5028740;28;20459;-60
2022/01/21 04:06:37;;;;;;;13.20;3.10;;;-0.40;99.90;;;;;;5028773;28;20073;-59
2022/01/21 04:09:03;;;;;;;12.48;3.33;;;-0.30;99.90;;;;;;5026468;28;20025;-61
2022/01/21 04:11:29;;;;;;;17.73;4.30;;;-0.30;99.90;;;;;;5028766;28;20103;-61
2022/01/21 04:13:55;;;;;;;13.50;3.63;;;-0.30;99.90;;;;;;5028757;28;20029;-61
2022/01/21 04:16:21;;;;;;;26.92;4.18;;;-0.20;99.90;;;;;;5026799;28;20069;-61
2022/01/21 04:18:47;;;;;;;20.55;5.22;;;-0.20;99.90;;;;;;5027197;28;20525;-59
2022/01/21 04:21:13;;;;;;;16.25;4.78;;;-0.20;99.90;;;;;;5029700;28;20095;-60
2022/01/21 04:23:39;;;;;;;15.10;4.50;;;-0.20;99.90;;;;;;5029571;28;20044;-60
2022/01/21 04:26:04;;;;;;;16.40;4.13;;;-0.30;99.90;;;;;;5028558;28;20045;-59
2022/01/21 04:28:30;;;;;;;30.75;3.80;;;-0.30;99.90;;;;;;5026490;28;20033;-60
2022/01/21 04:30:57;;;;;;;14.63;3.45;;;-0.30;99.90;;;;;;5027690;28;20029;-61
2022/01/21 04:33:23;;;;;;;18.17;4.30;;;-0.40;99.90;;;;;;5027520;28;20038;-61
2022/01/21 04:35:49;;;;;;;13.07;3.25;;;-0.40;99.90;;;;;;5027527;28;20080;-57
2022/01/21 04:38:18;;;;;;;10.88;3.22;;;-0.30;99.90;;;;;;5026819;28;20040;-60
2022/01/21 04:40:55;;;;;;;14.43;2.70;;;-0.30;99.90;;;;;;5025858;28;20069;-61
2022/01/21 04:48:50;;;;;;;14.55;2.83;;;-0.20;99.90;;;;;;5026069;28;20034;-61
2022/01/21 04:51:18;;;;;;;18.60;2.58;;;-0.20;99.90;;;;;;5029447;28;20049;-57
2022/01/21 04:53:46;;;;;;;20.98;3.03;;;-0.30;99.90;;;;;;5028992;28;20568;-60
2022/01/21 04:56:12;;;;;;;13.48;3.40;;;-0.20;99.90;;;;;;5028157;28;20489;-60
2022/01/21 04:58:38;;;;;;;21.45;4.80;;;-0.20;99.90;;;;;;5026329;28;20059;-59
2022/01/21 05:01:05;;;;;;;21.25;3.60;;;-0.20;99.90;;;;;;5023230;28;20587;-61
2022/01/21 05:03:32;;;;;;;13.95;3.38;;;-0.20;99.90;;;;;;5026702;28;20037;-61
2022/01/21 05:06:00;;;;;;;30.48;4.05;;;-0.30;99.90;;;;;;5027139;28;20049;-60
2022/01/21 05:08:38;;;;;;;16.83;2.55;;;-0.30;99.90;;;;;;5026331;28;20045;-60
2022/01/21 05:11:04;;;;;;;13.95;3.15;;;-0.20;99.90;;;;;;5024033;28;20033;-60
2022/01/21 05:13:37;;;;;;;15.93;3.58;;;-0.20;99.90;;;;;;5027096;28;20037;-60
2022/01/21 05:16:08;;;;;;;22.55;4.00;;;-0.20;99.90;;;;;;5025884;28;20120;-59
2022/01/21 05:18:34;;;;;;;13.80;3.55;;;-0.20;99.90;;;;;;5027341;28;20041;-60
2022/01/21 05:21:00;;;;;;;11.52;2.90;;;-0.20;99.90;;;;;;5029557;28;20040;-59
2022/01/21 05:23:26;;;;;;;19.75;3.83;;;-0.20;99.90;;;;;;5031467;28;20102;-58
2022/01/21 05:25:52;;;;;;;23.50;3.65;;;-0.20;99.90;;;;;;5027601;28;20045;-60
2022/01/21 05:28:18;;;;;;;14.32;2.67;;;-0.10;99.90;;;;;;5024434;28;20581;-58
2022/01/21 05:30:44;;;;;;;15.45;3.30;;;-0.10;99.90;;;;;;5026792;28;20068;-60
2022/01/21 05:33:09;;;;;;;15.65;3.42;;;-0.10;99.90;;;;;;5027230;28;20037;-61
2022/01/21 05:35:35;;;;;;;16.25;3.47;;;-0.10;99.90;;;;;;5027396;28;20033;-59
2022/01/21 05:38:01;;;;;;;14.82;3.72;;;-0.10;99.90;;;;;;5022133;28;20179;-60
2022/01/21 05:40:26;;;;;;;18.08;3.42;;;-0.20;99.90;;;;;;5025885;28;20037;-60
2022/01/21 05:42:52;;;;;;;16.83;3.85;;;-0.20;99.90;;;;;;5027120;28;20037;-61
2022/01/21 05:48:02;;;;;;;24.70;3.90;;;-0.20;99.90;;;;;;5023999;28;20045;-60
2022/01/21 05:50:27;;;;;;;14.25;3.60;;;-0.20;99.90;;;;;;5026817;28;20415;-58
2022/01/21 05:52:55;;;;;;;11.43;4.28;;;-0.20;99.90;;;;;;5030345;28;20037;-60
2022/01/21 05:55:21;;;;;;;25.42;3.72;;;-0.10;99.90;;;;;;5026447;28;20041;-60
2022/01/21 05:57:46;;;;;;;23.40;4.07;;;0.00;99.90;;;;;;5025464;28;20043;-59
2022/01/21 06:00:12;;;;;;;29.00;5.65;;;0.00;99.90;;;;;;5023793;28;20033;-59
2022/01/21 06:02:38;;;;;;;15.50;3.40;;;0.00;99.90;;;;;;5047189;28;20060;-61
2022/01/21 06:05:05;;;;;;;19.88;4.70;;;0.10;99.90;;;;;;5051661;28;20079;-60
2022/01/21 06:07:31;;;;;;;21.73;4.05;;;0.10;99.90;;;;;;5056291;28;20075;-60
2022/01/21 06:09:57;;;;;;;16.48;5.30;;;0.10;99.90;;;;;;5058432;28;20064;-60
2022/01/21 06:12:22;;;;;;;19.35;5.13;;;0.10;99.90;;;;;;5051233;28;20044;-58
2022/01/21 06:14:48;;;;;;;25.83;5.35;;;0.00;99.90;;;;;;5050631;28;20037;-61
2022/01/21 06:17:14;;;;;;;24.40;4.95;;;0.00;99.90;;;;;;5048782;28;20428;-62
2022/01/21 06:19:40;;;;;;;20.48;4.40;;;0.00;99.90;;;;;;5053920;28;20550;-61
2022/01/21 06:22:06;;;;;;;25.80;4.75;;;0.00;99.90;;;;;;5049681;28;20044;-61
2022/01/21 06:24:32;;;;;;;21.73;5.22;;;0.00;99.90;;;;;;5054754;28;20047;-61
2022/01/21 06:27:01;;;;;;;24.00;4.70;;;0.00;99.90;;;;;;5053917;28;20041;-60
2022/01/21 06:29:27;;;;;;;22.45;4.82;;;-0.10;99.90;;;;;;5052564;28;20090;-65
2022/01/21 06:31:53;;;;;;;20.83;5.22;;;-0.10;99.90;;;;;;5053369;28;20036;-64
2022/01/21 06:34:18;;;;;;;17.52;3.72;;;-0.10;99.90;;;;;;5052899;28;20037;-62
2022/01/21 06:36:44;;;;;;;19.17;4.30;;;-0.10;99.90;;;;;;5054024;28;20033;-62
2022/01/21 06:39:10;;;;;;;15.80;4.47;;;-0.10;99.90;;;;;;5047799;28;20029;-60
2022/01/21 06:41:36;;;;;;;17.00;3.92;;;-0.10;99.90;;;;;;5053908;28;20040;-61
2022/01/21 06:44:02;;;;;;;19.90;4.13;;;0.00;99.90;;;;;;5049920;28;20029;-59
2022/01/21 06:46:28;;;;;;;13.52;3.92;;;0.00;99.90;;;;;;5058225;28;20045;-60
2022/01/21 06:48:53;;;;;;;22.83;5.10;;;0.00;99.90;;;;;;5052766;28;20180;-62
2022/01/21 06:51:19;;;;;;;16.88;4.45;;;0.00;99.90;;;;;;5054601;28;20035;-61
2022/01/21 06:53:45;;;;;;;14.32;3.85;;;0.00;99.90;;;;;;5052912;28;20036;-60
2022/01/21 06:56:10;;;;;;;13.60;4.20;;;-0.10;99.90;;;;;;5059414;28;20040;-60
2022/01/21 06:58:36;;;;;;;12.25;3.70;;;-0.10;99.90;;;;;;5056380;28;20040;-59
2022/01/21 07:01:02;;;;;;;15.02;3.97;;;-0.10;99.90;;;;;;5051440;28;20118;-61
2022/01/21 07:03:28;;;;;;;20.17;4.80;;;-0.10;99.90;;;;;;5051587;28;20032;-60
2022/01/21 07:05:53;;;;;;;28.50;4.00;;;0.00;99.90;;;;;;5062111;28;20052;-60
2022/01/21 07:08:19;;;;;;;13.55;3.88;;;0.00;99.90;;;;;;5057238;28;20443;-62
2022/01/21 07:10:45;;;;;;;18.05;4.60;;;0.00;99.90;;;;;;5054674;28;20047;-59
2022/01/21 07:13:11;;;;;;;10.38;3.63;;;0.10;99.90;;;;;;5053100;28;20040;-60
2022/01/21 07:15:37;;;;;;;15.23;5.30;;;0.10;99.90;;;;;;5055131;28;20824;-60
2022/01/21 07:18:03;;;;;;;18.05;4.40;;;0.10;99.90;;;;;;5051895;28;20133;-61
2022/01/21 07:20:29;;;;;;;19.15;4.28;;;0.10;99.90;;;;;;5058061;28;20031;-60
2022/01/21 07:22:55;;;;;;;11.52;3.80;;;0.00;99.90;;;;;;5049549;28;20037;-61
2022/01/21 07:25:22;;;;;;;14.70;3.65;;;0.10;99.90;;;;;;5055888;28;20095;-60
2022/01/21 07:27:47;;;;;;;16.63;3.72;;;0.10;99.90;;;;;;5056124;28;20040;-59
2022/01/21 07:30:14;;;;;;;20.90;3.55;;;0.10;99.90;;;;;;5060651;28;20169;-59
2022/01/21 07:32:41;;;;;;;19.55;4.13;;;0.10;99.90;;;;;;5048493;28;20044;-59
2022/01/21 07:35:09;;;;;;;18.92;4.65;;;0.10;99.90;;;;;;5053431;28;20437;-60
2022/01/21 07:37:35;;;;;;;10.85;4.25;;;0.10;99.90;;;;;;5045865;28;20048;-59
2022/01/21 07:40:01;;;;;;;22.77;4.15;;;0.20;99.90;;;;;;5055763;28;20052;-59
2022/01/21 07:42:28;;;;;;;15.10;4.20;;;0.10;99.90;;;;;;5056731;28;20045;-58
2022/01/21 07:44:54;;;;;;;13.63;3.45;;;0.00;99.90;;;;;;5056731;28;20032;-59
2022/01/21 07:47:20;;;;;;;19.92;3.65;;;0.10;99.90;;;;;;5058483;28;20114;-59
2022/01/21 07:49:45;;;;;;;15.18;3.88;;;0.10;99.90;;;;;;5041794;28;20029;-60
2022/01/21 07:52:11;;;;;;;13.13;3.58;;;0.10;99.90;;;;;;5050231;28;20578;-59
2022/01/21 07:54:38;;;;;;;20.98;3.17;;;0.20;99.90;;;;;;5057023;28;20043;-59
2022/01/21 07:57:04;;;;;;;9.75;3.35;;;0.20;99.90;;;;;;5056749;28;20045;-60
2022/01/21 07:59:29;;;;;;;22.33;3.60;;;0.10;99.90;;;;;;5057663;28;20055;-56
2022/01/21 08:01:57;;;;;;;14.65;3.33;;;0.20;99.90;;;;;;5057284;28;20044;-59
2022/01/21 08:04:23;;;;;;;8.90;3.25;;;0.20;99.90;;;;;;5058402;28;20064;-59
2022/01/21 08:06:48;;;;;;;19.20;3.63;;;0.20;99.90;;;;;;5060468;28;20059;-58
2022/01/21 08:09:14;;;;;;;13.05;2.90;;;0.20;99.90;;;;;;5051697;28;20041;-58
2022/01/21 08:11:40;;;;;;;19.15;3.85;;;0.20;99.90;;;;;;5059074;28;20033;-59
2022/01/21 08:14:06;;;;;;;7.18;2.55;;;0.30;99.90;;;;;;5056292;28;20033;-60
2022/01/21 08:16:34;;;;;;;12.65;2.92;;;0.20;99.90;;;;;;5059139;28;20381;-58
2022/01/21 08:19:00;;;;;;;14.18;2.75;;;0.30;99.90;;;;;;5052912;28;20090;-59
2022/01/21 08:21:26;;;;;;;23.67;4.43;;;0.30;99.90;;;;;;5055943;28;20037;-56
2022/01/21 08:23:53;;;;;;;13.90;3.38;;;0.20;99.90;;;;;;5055435;28;20411;-57
2022/01/21 08:26:25;;;;;;;17.38;4.38;;;0.30;99.90;;;;;;5059180;28;20401;-58
2022/01/21 08:28:52;;;;;;;16.60;5.25;;;0.30;99.90;;;;;;5053420;28;20033;-60
2022/01/21 08:31:19;;;;;;;10.40;3.55;;;0.40;99.90;;;;;;5053687;28;20077;-59
2022/01/21 08:33:47;;;;;;;12.77;3.22;;;0.40;99.90;;;;;;5057832;28;20032;-59
2022/01/21 08:36:12;;;;;;;12.75;3.08;;;0.40;99.90;;;;;;5035059;28;20571;-59
2022/01/21 08:38:39;;;;;;;15.73;3.67;;;0.40;99.90;;;;;;5055262;28;20032;-59
2022/01/21 08:41:05;;;;;;;12.48;2.97;;;0.50;99.90;;;;;;5057615;28;20036;-57
2022/01/21 08:43:31;;;;;;;11.70;2.80;;;0.50;99.90;;;;;;5059691;28;20433;-58
2022/01/21 08:45:57;;;;;;;10.50;2.25;;;0.60;99.90;;;;;;5057637;28;20055;-57
2022/01/21 08:48:23;;;;;;;9.90;2.95;;;0.70;99.90;;;;;;5056302;28;20041;-59
2022/01/21 08:50:49;;;;;;;7.78;2.22;;;0.60;99.90;;;;;;5055759;28;20076;-57
2022/01/21 08:56:01;;;;;;;7.85;2.13;;;0.50;99.90;;;;;;5059363;28;20036;-60
2022/01/21 08:58:27;;;;;;;9.77;2.40;;;0.50;99.90;;;;;;5047059;28;20044;-60
2022/01/21 09:00:53;;;;;;;8.18;2.63;;;0.50;99.90;;;;;;5055035;28;20042;-60
2022/01/21 09:03:19;;;;;;;5.47;2.17;;;0.50;99.90;;;;;;5056399;28;20033;-59
2022/01/21 09:05:48;;;;;;;11.98;2.58;;;0.60;99.90;;;;;;5052262;28;20032;-58
2022/01/21 09:08:16;;;;;;;13.23;2.85;;;0.70;99.90;;;;;;5057340;28;20175;-58
2022/01/21 09:10:42;;;;;;;9.00;2.78;;;0.70;99.90;;;;;;5037439;28;20028;-59
2022/01/21 09:13:07;;;;;;;9.20;2.58;;;0.80;99.90;;;;;;5056003;28;20110;-58
2022/01/21 09:15:34;;;;;;;12.60;2.58;;;0.80;99.90;;;;;;5056576;28;20040;-59
2022/01/21 09:18:04;;;;;;;16.00;3.63;;;0.80;99.90;;;;;;5040432;28;20158;-59
2022/01/21 09:20:35;;;;;;;13.13;2.75;;;0.80;99.90;;;;;;5054397;28;20063;-60
2022/01/21 09:23:01;;;;;;;6.50;2.00;;;0.80;99.90;;;;;;5060475;28;20040;-60
2022/01/21 09:25:28;;;;;;;7.85;2.08;;;0.80;99.90;;;;;;5052626;28;20033;-59
2022/01/21 09:27:54;;;;;;;9.40;2.17;;;0.80;99.90;;;;;;5053889;28;20040;-60
2022/01/21 09:30:21;;;;;;;6.55;2.60;;;0.70;99.90;;;;;;5048762;28;20041;-59
2022/01/21 09:32:47;;;;;;;9.60;2.28;;;0.70;99.90;;;;;;5037201;28;20068;-58
2022/01/21 09:35:13;;;;;;;16.23;6.10;;;0.70;99.90;;;;;;5042584;28;20137;-60
2022/01/21 09:37:39;;;;;;;21.13;9.40;;;0.80;99.90;;;;;;5058478;28;20048;-58
2022/01/21 09:40:06;;;;;;;9.25;2.75;;;0.90;99.90;;;;;;5048357;28;20099;-60
2022/01/21 09:42:34;;;;;;;4.53;1.80;;;0.90;99.90;;;;;;5062176;28;20076;-58
2022/01/21 09:45:00;;;;;;;13.05;2.85;;;0.90;99.90;;;;;;5053414;28;20045;-60
2022/01/21 09:47:31;;;;;;;8.85;1.73;;;0.90;99.90;;;;;;5059306;28;20084;-59
2022/01/21 09:49:57;;;;;;;22.02;2.22;;;1.00;99.90;;;;;;5048524;28;20048;-60
2022/01/21 09:52:24;;;;;;;17.10;2.75;;;1.00;99.90;;;;;;5060231;28;20464;-59
2022/01/21 09:54:51;;;;;;;10.18;2.25;;;1.00;99.90;;;;;;5049179;28;20036;-59
2022/01/21 09:57:23;;;;;;;6.60;2.15;;;1.10;99.90;;;;;;5059678;28;20071;-58
2022/01/21 09:59:51;;;;;;;10.88;2.28;;;1.00;99.90;;;;;;5050983;28;20563;-60
2022/01/21 10:02:20;;;;;;;6.05;1.85;;;1.00;99.90;;;;;;5058693;28;20085;-58
2022/01/21 10:04:49;;;;;;;7.18;1.98;;;1.10;99.90;;;;;;5048292;28;20040;-58
2022/01/21 10:07:17;;;;;;;4.65;1.65;;;0.90;99.90;;;;;;5056895;28;20111;-60
2022/01/21 10:09:45;;;;;;;10.80;2.15;;;0.90;99.90;;;;;;5048659;28;20045;-58
2022/01/21 10:12:11;;;;;;;8.85;1.70;;;1.00;99.90;;;;;;5038401;28;20040;-60
2022/01/21 10:14:38;;;;;;;8.07;2.28;;;1.00;99.90;;;;;;5061814;28;20040;-60
2022/01/21 10:17:05;;;;;;;5.47;2.28;;;1.00;99.90;;;;;;5053123;28;20045;-58
2022/01/21 10:19:39;;;;;;;14.93;2.20;;;0.90;99.90;;;;;;5053870;28;20041;-60
2022/01/21 10:22:15;;;;;;;7.03;2.95;;;1.00;99.90;;;;;;5060291;28;20512;-60
2022/01/21 10:25:02;;;;;;;13.97;3.77;;;1.00;99.90;;;;;;5044978;28;20094;-59
2022/01/21 10:27:36;;;;;;;10.85;2.92;;;0.90;99.90;;;;;;5059254;28;20306;-58
2022/01/21 10:30:19;;;;;;;17.73;3.15;;;1.00;99.90;;;;;;5053667;28;20037;-57
2022/01/21 10:32:45;;;;;;;20.42;3.72;;;1.10;99.90;;;;;;5049798;28;20060;-59
2022/01/21 10:35:32;;;;;;;11.38;3.05;;;1.00;99.90;;;;;;5050392;28;20481;-59
2022/01/21 10:38:23;;;;;;;12.93;2.65;;;1.10;99.90;;;;;;5054557;28;20036;-58
2022/01/21 10:40:49;;;;;;;12.25;4.40;;;1.30;99.90;;;;;;5050670;28;20036;-57
2022/01/21 10:43:18;;;;;;;18.60;3.60;;;1.40;99.90;;;;;;5052536;28;20106;-58
2022/01/21 10:45:56;;;;;;;13.60;2.83;;;1.40;99.90;;;;;;5045741;28;20505;-59
2022/01/21 10:48:22;;;;;;;15.35;2.63;;;1.40;99.90;;;;;;5060866;28;20111;-60
2022/01/21 10:51:18;;;;;;;11.35;2.55;;;1.40;99.90;;;;;;5051315;28;20036;-60
2022/01/21 10:53:45;;;;;;;7.90;2.85;;;1.40;99.90;;;;;;5043845;28;20037;-60
2022/01/21 10:56:15;;;;;;;13.27;3.03;;;1.40;99.90;;;;;;5046824;28;20085;-59
2022/01/21 10:58:52;;;;;;;13.57;2.83;;;1.50;99.90;;;;;;5063517;28;20116;-60
2022/01/21 11:01:22;;;;;;;;;;;1.50;99.90;;;;;;5055433;28;20043;-57
2022/01/21 11:04:04;;;;;;;12.65;2.40;;;1.50;99.90;;;;;;5054754;28;19939;-60
2022/01/21 11:06:42;;;;;;;17.42;4.13;;;1.60;99.90;;;;;;5054013;28;20052;-59
2022/01/21 11:09:18;;;;;;;28.48;7.70;;;1.60;99.90;;;;;;5058783;28;20598;-59
2022/01/21 11:11:46;;;;;;;17.45;4.10;;;1.50;99.90;;;;;;5053418;28;20214;-60
2022/01/21 11:14:14;;;;;;;11.10;2.67;;;1.60;99.90;;;;;;5043277;28;20468;-60
2022/01/21 11:16:43;;;;;;;18.73;3.67;;;1.70;99.90;;;;;;5042604;28;20496;-59
2022/01/21 11:19:12;;;;;;;20.30;2.92;;;1.70;99.90;;;;;;5047859;28;20053;-59
2022/01/21 11:21:45;;;;;;;14.15;3.70;;;1.70;99.90;;;;;;5053872;28;20072;-60
2022/01/21 11:24:12;;;;;;;15.30;3.00;;;1.70;99.90;;;;;;5049778;28;20047;-60
2022/01/21 11:26:38;;;;;;;10.68;2.80;;;1.70;99.90;;;;;;5055213;28;20094;-60
2022/01/21 11:29:05;;;;;;;9.25;3.40;;;1.70;99.90;;;;;;5052716;28;20037;-59
2022/01/21 11:31:32;;;;;;;12.43;3.15;;;1.60;99.90;;;;;;5052316;28;20039;-57
2022/01/21 11:33:57;;;;;;;16.30;3.53;;;1.50;99.90;;;;;;5052971;28;20454;-57
2022/01/21 11:36:25;;;;;;;25.13;4.57;;;1.50;99.90;;;;;;5047634;28;20076;-59
2022/01/21 11:38:55;;;;;;;14.98;2.85;;;1.50;99.90;;;;;;5053932;28;20060;-57
2022/01/21 11:41:24;;;;;;;19.45;3.58;;;1.60;99.90;;;;;;5055173;28;20041;-61
2022/01/21 11:43:52;;;;;;;13.20;3.28;;;1.60;99.90;;;;;;5062523;28;20389;-60
2022/01/21 11:49:20;;;;;;;21.42;4.90;;;1.70;99.90;;;;;;5039326;28;20052;-63
2022/01/21 11:51:45;;;;;;;10.55;3.50;;;1.80;99.90;;;;;;5050071;28;20040;-60
2022/01/21 11:54:14;;;;;;;17.70;3.75;;;1.90;99.90;;;;;;5053110;28;20044;-62
2022/01/21 11:56:43;;;;;;;14.05;3.88;;;1.80;99.90;;;;;;5054484;28;20049;-64
2022/01/21 11:59:32;;;;;;;20.02;3.47;;;1.70;99.90;;;;;;5057982;28;20059;-63
2022/01/21 12:01:59;;;;;;;18.38;3.90;;;1.60;99.90;;;;;;5058202;28;20044;-63
2022/01/21 12:04:30;;;;;;;18.15;3.80;;;1.60;99.90;;;;;;5053314;28;20660;-61
2022/01/21 12:06:57;;;;;;;13.55;3.10;;;1.60;99.90;;;;;;5052820;28;20040;-62
2022/01/21 12:09:58;;;;;;;13.27;2.70;;;1.60;99.90;;;;;;5048360;28;20041;-62
2022/01/21 12:12:44;;;;;;;8.98;2.63;;;1.70;99.90;;;;;;5054795;28;20056;-62
2022/01/21 12:15:20;;;;;;;12.48;2.90;;;1.80;99.90;;;;;;5054458;28;20108;-61
2022/01/21 12:17:56;;;;;;;9.85;2.53;;;1.80;99.90;;;;;;5029833;28;20044;-66
2022/01/21 12:20:32;;;;;;;17.33;2.92;;;1.80;99.90;;;;;;5041385;28;20041;-62
2022/01/21 12:23:15;;;;;;;14.50;3.58;;;1.90;99.90;;;;;;5053884;28;20048;-61
2022/01/21 12:26:15;;;;;;;16.67;3.60;;;1.80;99.90;;;;;;5048025;28;20048;-61
2022/01/21 12:28:46;;;;;;;19.67;5.95;;;1.80;99.90;;;;;;5046415;28;20120;-61
2022/01/21 12:31:15;;;;;;;12.50;3.13;;;1.80;99.90;;;;;;5054607;28;20037;-61
2022/01/21 12:33:56;;;;;;;13.65;3.70;;;1.80;99.90;;;;;;5054518;28;20072;-61
2022/01/21 12:36:29;;;;;;;18.45;4.13;;;1.90;99.90;;;;;;5037683;28;20037;-61
2022/01/21 12:41:24;;;;;;;22.35;3.90;;;1.90;99.90;;;;;;5044244;28;20033;-61
2022/01/21 12:43:52;;;;;;;15.70;3.50;;;2.00;99.90;;;;;;5057100;28;20646;-61
2022/01/21 12:46:23;;;;;;;13.45;3.72;;;2.10;99.90;;;;;;5051449;28;20061;-61
2022/01/21 12:48:50;;;;;;;21.60;4.05;;;2.10;99.90;;;;;;5052130;28;20040;-57
2022/01/21 12:51:34;;;;;;;14.80;3.55;;;2.00;99.90;;;;;;5060627;28;20492;-60
2022/01/21 12:56:58;;;;;;;16.08;3.80;;;2.00;99.90;;;;;;5046761;28;20041;-61
2022/01/21 12:59:26;;;;;;;18.45;3.95;;;2.10;99.90;;;;;;5058567;28;20823;-61
2022/01/21 13:01:53;;;;;;;10.18;3.10;;;2.00;99.90;;;;;;5052322;28;20115;-61
2022/01/21 13:04:53;;;;;;;11.68;3.30;;;2.10;99.90;;;;;;5059246;28;20043;-59
2022/01/21 13:07:34;;;;;;;20.05;4.05;;;2.10;99.90;;;;;;5049290;28;20033;-61
2022/01/21 13:10:20;;;;;;;13.48;4.72;;;2.20;99.90;;;;;;5054586;28;20037;-61
2022/01/21 13:13:14;;;;;;;25.08;7.25;;;2.10;99.90;;;;;;5054233;28;20040;-59
2022/01/21 13:15:41;;;;;;;14.07;3.95;;;2.10;99.90;;;;;;5048253;28;20048;-60
2022/01/21 13:18:08;;;;;;;12.50;4.28;;;1.90;99.90;;;;;;5053285;28;20036;-60
2022/01/21 13:20:36;;;;;;;20.02;5.32;;;1.90;99.90;;;;;;5058861;28;20097;-60
2022/01/21 13:23:03;;;;;;;17.90;6.40;;;1.90;99.90;;;;;;5050359;28;20041;-60
2022/01/21 13:25:31;;;;;;;20.63;5.10;;;2.00;99.90;;;;;;5057023;28;20527;-61
2022/01/21 13:27:59;;;;;;;16.85;4.80;;;2.20;99.90;;;;;;5053041;28;20045;-62
2022/01/21 13:30:29;;;;;;;22.20;5.07;;;2.20;99.90;;;;;;5058367;28;20856;-61
2022/01/21 13:33:13;;;;;;;16.00;4.50;;;2.10;99.90;;;;;;5054740;28;20047;-61
2022/01/21 13:35:43;;;;;;;15.85;4.15;;;2.20;99.90;;;;;;5040180;28;20071;-59
2022/01/21 13:38:18;;;;;;;10.40;3.83;;;2.10;99.90;;;;;;5049977;28;20084;-62
2022/01/21 13:40:50;;;;;;;12.73;3.80;;;2.30;99.90;;;;;;5046079;28;20559;-62
2022/01/21 13:43:19;;;;;;;24.42;4.40;;;2.40;99.90;;;;;;5052152;28;20051;-62